createdAt,value
2019-02-04T00:00:40.957Z,102156.69
2019-02-04T00:03:12.968Z,102161.67
2019-02-04T00:05:41.414Z,102163.94
2019-02-04T00:08:09.959Z,102167.77
2019-02-04T00:10:38.608Z,102163.45
2019-02-04T00:13:07.375Z,102162.67
2019-02-04T00:15:36.578Z,102165.50
2019-02-04T00:18:06.822Z,102162.03
2019-02-04T00:20:35.276Z,102167.16
2019-02-04T00:23:03.723Z,102171.34
2019-02-04T00:25:32.274Z,102175.93
2019-02-04T00:28:00.747Z,102177.06
2019-02-04T00:30:29.345Z,102178.72
2019-02-04T00:32:57.853Z,102173.13
2019-02-04T00:35:26.321Z,102176.45
2019-02-04T00:37:54.767Z,102183.06
2019-02-04T00:40:26.453Z,102187.62
2019-02-04T00:42:54.902Z,102193.11
2019-02-04T00:45:23.369Z,102192.71
2019-02-04T00:47:51.864Z,102196.81
2019-02-04T00:50:21.559Z,102198.08
2019-02-04T00:52:50.111Z,102197.28
2019-02-04T00:55:18.853Z,102201.88
2019-02-04T00:57:47.309Z,102204.81
2019-02-04T01:00:21.589Z,102211.17
2019-02-04T01:02:50.163Z,102211.91
2019-02-04T01:05:21.794Z,102216.89
2019-02-04T01:07:50.414Z,102216.87
2019-02-04T01:10:27.438Z,102212.41
2019-02-04T01:12:56.360Z,102211.38
2019-02-04T01:15:24.879Z,102212.88
2019-02-04T01:17:53.560Z,102216.45
2019-02-04T01:20:24.902Z,102223.72
2019-02-04T01:22:54.247Z,102221.56
2019-02-04T01:25:23.110Z,102224.61
2019-02-04T01:27:51.657Z,102223.23
2019-02-04T01:30:22.828Z,102226.03
2019-02-04T01:32:53.150Z,102220.16
2019-02-04T01:35:21.660Z,102226.20
2019-02-04T01:37:50.483Z,102233.87
2019-02-04T01:40:26.296Z,102237.70
2019-02-04T01:42:55.588Z,102239.87
2019-02-04T01:45:24.877Z,102243.32
2019-02-04T01:47:53.441Z,102247.79
2019-02-04T01:50:23.215Z,102250.98
2019-02-04T01:52:51.742Z,102249.56
2019-02-04T01:55:20.247Z,102252.64
2019-02-04T01:57:51.252Z,102259.52
2019-02-04T02:00:44.987Z,102259.12
2019-02-04T02:03:13.454Z,102261.81
2019-02-04T02:05:41.900Z,102265.01
2019-02-04T02:08:10.381Z,102266.67
2019-02-04T02:10:38.859Z,102263.98
2019-02-04T02:13:07.329Z,102266.03
2019-02-04T02:15:35.823Z,102266.15
2019-02-04T02:18:05.073Z,102268.84
2019-02-04T02:20:33.530Z,102272.77
2019-02-04T02:23:02.474Z,102268.95
2019-02-04T02:25:31.043Z,102273.66
2019-02-04T02:27:59.496Z,102280.17
2019-02-04T02:30:30.157Z,102289.59
2019-02-04T02:32:58.629Z,102286.30
2019-02-04T02:35:27.209Z,102287.28
2019-02-04T02:37:55.699Z,102286.15
2019-02-04T02:40:29.942Z,102291.73
2019-02-04T02:42:58.844Z,102293.79
2019-02-04T02:45:27.420Z,102297.86
2019-02-04T02:47:55.959Z,102294.66
2019-02-04T02:50:24.424Z,102298.88
2019-02-04T02:52:52.993Z,102304.22
2019-02-04T02:55:21.557Z,102301.03
2019-02-04T02:57:50.053Z,102308.03
2019-02-04T03:00:21.275Z,102309.16
2019-02-04T03:02:49.803Z,102310.71
2019-02-04T03:05:18.630Z,102322.03
2019-02-04T03:07:47.130Z,102324.71
2019-02-04T03:10:24.341Z,102324.95
2019-02-04T03:12:52.915Z,102327.24
2019-02-04T03:15:21.471Z,102330.42
2019-02-04T03:17:52.387Z,102332.44
2019-02-04T03:20:20.399Z,102331.41
2019-02-04T03:22:48.998Z,102345.95
2019-02-04T03:25:17.603Z,102342.37
2019-02-04T03:27:46.237Z,102344.77
2019-02-04T03:30:20.544Z,102344.12
2019-02-04T03:32:49.070Z,102346.91
2019-02-04T03:35:17.706Z,102351.00
2019-02-04T03:37:46.269Z,102354.17
2019-02-04T03:40:18.205Z,102351.48
2019-02-04T03:42:46.854Z,102355.05
2019-02-04T03:45:15.735Z,102355.13
2019-02-04T03:47:44.362Z,102362.51
2019-02-04T03:50:14.080Z,102362.25
2019-02-04T03:52:42.622Z,102368.34
2019-02-04T03:55:13.076Z,102374.06
2019-02-04T03:57:41.684Z,102379.51
2019-02-04T04:00:36.803Z,102383.21
2019-02-04T04:03:05.859Z,102387.50
2019-02-04T04:05:34.395Z,102387.50
2019-02-04T04:08:03.016Z,102382.41
2019-02-04T04:10:31.666Z,102390.82
2019-02-04T04:13:00.225Z,102391.70
2019-02-04T04:15:28.839Z,102389.66
2019-02-04T04:17:57.377Z,102396.02
2019-02-04T04:20:25.951Z,102399.49
2019-02-04T04:22:54.487Z,102402.92
2019-02-04T04:25:23.096Z,102400.77
2019-02-04T04:27:52.554Z,102402.92
2019-02-04T04:30:23.340Z,102406.86
2019-02-04T04:32:51.980Z,102403.97
2019-02-04T04:35:20.580Z,102406.51
2019-02-04T04:37:49.195Z,102410.83
2019-02-04T04:40:18.585Z,102406.23
2019-02-04T04:42:47.208Z,102409.55
2019-02-04T04:45:20.697Z,102410.05
2019-02-04T04:47:49.543Z,102419.50
2019-02-04T04:50:18.249Z,102416.81
2019-02-04T04:52:46.861Z,102419.73
2019-02-04T04:55:23.546Z,102419.23
2019-02-04T04:57:52.111Z,102420.51
2019-02-04T05:00:26.177Z,102427.23
2019-02-04T05:02:54.766Z,102423.67
2019-02-04T05:05:23.297Z,102431.66
2019-02-04T05:07:51.995Z,102430.39
2019-02-04T05:10:21.619Z,102431.55
2019-02-04T05:12:50.170Z,102439.92
2019-02-04T05:15:24.340Z,102432.67
2019-02-04T05:17:53.195Z,102432.82
2019-02-04T05:20:22.491Z,102440.84
2019-02-04T05:22:51.199Z,102440.95
2019-02-04T05:25:19.757Z,102440.95
2019-02-04T05:27:48.304Z,102449.13
2019-02-04T05:30:21.938Z,102450.91
2019-02-04T05:32:50.703Z,102456.15
2019-02-04T05:35:19.814Z,102450.28
2019-02-04T05:37:48.428Z,102464.55
2019-02-04T05:40:17.758Z,102463.28
2019-02-04T05:42:46.679Z,102457.30
2019-02-04T05:45:20.197Z,102465.48
2019-02-04T05:47:48.786Z,102468.53
2019-02-04T05:50:18.976Z,102474.50
2019-02-04T05:52:48.763Z,102477.94
2019-02-04T05:55:18.798Z,102481.76
2019-02-04T05:57:47.348Z,102478.48
2019-02-04T06:00:23.707Z,102487.39
2019-02-04T06:02:52.286Z,102482.14
2019-02-04T06:05:20.961Z,102481.76
2019-02-04T06:07:49.505Z,102484.19
2019-02-04T06:10:18.536Z,102485.46
2019-02-04T06:12:47.089Z,102480.22
2019-02-04T06:15:16.878Z,102490.02
2019-02-04T06:17:45.461Z,102497.66
2019-02-04T06:20:17.431Z,102502.62
2019-02-04T06:22:45.973Z,102507.18
2019-02-04T06:25:14.617Z,102511.00
2019-02-04T06:27:43.174Z,102505.79
2019-02-04T06:30:14.103Z,102514.31
2019-02-04T06:32:43.005Z,102507.41
2019-02-04T06:35:12.791Z,102513.78
2019-02-04T06:37:41.416Z,102511.23
2019-02-04T06:40:17.294Z,102511.62
2019-02-04T06:42:46.098Z,102520.41
2019-02-04T06:45:18.320Z,102522.57
2019-02-04T06:47:47.086Z,102528.94
2019-02-04T06:50:18.348Z,102522.95
2019-02-04T06:52:46.886Z,102523.30
2019-02-04T06:55:30.330Z,102529.98
2019-02-04T06:57:59.011Z,102535.95
2019-02-04T07:00:27.580Z,102539.00
2019-02-04T07:02:56.229Z,102538.27
2019-02-04T07:05:24.773Z,102537.66
2019-02-04T07:07:53.317Z,102542.52
2019-02-04T07:10:24.337Z,102542.63
2019-02-04T07:12:52.871Z,102545.72
2019-02-04T07:15:21.498Z,102549.66
2019-02-04T07:17:50.267Z,102550.69
2019-02-04T07:20:23.704Z,102558.84
2019-02-04T07:22:52.242Z,102559.88
2019-02-04T07:25:21.358Z,102561.30
2019-02-04T07:27:49.977Z,102567.55
2019-02-04T07:30:20.759Z,102569.37
2019-02-04T07:32:49.482Z,102576.13
2019-02-04T07:35:19.939Z,102576.13
2019-02-04T07:37:48.863Z,102578.44
2019-02-04T07:40:23.526Z,102579.63
2019-02-04T07:42:53.116Z,102587.39
2019-02-04T07:45:22.026Z,102581.44
2019-02-04T07:47:50.885Z,102586.96
2019-02-04T07:50:19.507Z,102583.17
2019-02-04T07:52:48.121Z,102580.42
2019-02-04T07:55:16.614Z,102580.45
2019-02-04T07:57:45.140Z,102580.10
2019-02-04T08:00:24.611Z,102588.04
2019-02-04T08:02:53.145Z,102588.84
2019-02-04T08:05:21.601Z,102584.96
2019-02-04T08:07:50.100Z,102581.66
2019-02-04T08:10:18.619Z,102586.78
2019-02-04T08:12:47.175Z,102579.55
2019-02-04T08:15:21.576Z,102580.34
2019-02-04T08:17:50.034Z,102575.50
2019-02-04T08:20:18.491Z,102580.48
2019-02-04T08:22:47.053Z,102577.06
2019-02-04T08:25:16.836Z,102579.13
2019-02-04T08:27:45.315Z,102571.34
2019-02-04T08:30:23.182Z,102575.08
2019-02-04T08:32:51.639Z,102574.06
2019-02-04T08:35:20.264Z,102575.84
2019-02-04T08:37:49.849Z,102575.86
2019-02-04T08:40:19.471Z,102570.27
2019-02-04T08:42:47.991Z,102565.19
2019-02-04T08:45:16.679Z,102571.81
2019-02-04T08:47:45.276Z,102565.19
2019-02-04T08:50:17.243Z,102560.73
2019-02-04T08:52:45.848Z,102568.00
2019-02-04T08:55:14.534Z,102562.39
2019-02-04T08:57:43.323Z,102566.87
2019-02-04T09:00:15.015Z,102569.03
2019-02-04T09:02:43.540Z,102580.27
2019-02-04T09:05:14.331Z,102570.06
2019-02-04T09:07:43.206Z,102576.20
2019-02-04T09:10:20.817Z,102564.19
2019-02-04T09:12:49.784Z,102569.19
2019-02-04T09:15:18.410Z,102561.64
2019-02-04T09:17:46.935Z,102574.80
2019-02-04T09:20:19.045Z,102567.05
2019-02-04T09:22:47.878Z,102569.21
2019-02-04T09:25:18.365Z,102577.12
2019-02-04T09:27:46.851Z,102573.54
2019-02-04T09:30:20.742Z,102569.06
2019-02-04T09:32:49.442Z,102560.41
2019-02-04T09:35:19.676Z,102563.20
2019-02-04T09:37:48.294Z,102553.48
2019-02-04T09:40:20.531Z,102555.79
2019-02-04T09:42:49.296Z,102561.67
2019-02-04T09:45:18.119Z,102552.98
2019-02-04T09:47:47.354Z,102559.22
2019-02-04T09:50:22.080Z,102552.72
2019-02-04T09:52:51.001Z,102547.06
2019-02-04T09:55:22.264Z,102551.18
2019-02-04T09:57:52.376Z,102545.53
2019-02-04T10:00:26.461Z,102544.77
2019-02-04T10:02:54.924Z,102548.45
2019-02-04T10:05:23.500Z,102546.66
2019-02-04T10:07:51.958Z,102548.32
2019-02-04T10:10:26.234Z,102553.42
2019-02-04T10:12:54.795Z,102553.66
2019-02-04T10:15:25.792Z,102556.98
2019-02-04T10:17:54.244Z,102558.61
2019-02-04T10:20:33.108Z,102556.16
2019-02-04T10:22:53.048Z,102559.20
2019-02-04T10:25:33.935Z,102559.96
2019-02-04T10:28:02.455Z,102546.66
2019-02-04T10:30:31.023Z,102544.08
2019-02-04T10:32:59.511Z,102543.91
2019-02-04T10:35:27.957Z,102541.72
2019-02-04T10:37:56.576Z,102547.70
2019-02-04T10:40:29.693Z,102552.53
2019-02-04T10:42:58.505Z,102551.75
2019-02-04T10:45:27.401Z,102543.75
2019-02-04T10:47:55.889Z,102545.91
2019-02-04T10:50:45.121Z,102542.93
2019-02-04T10:53:03.239Z,102543.69
2019-02-04T10:55:31.756Z,102540.92
2019-02-04T10:58:00.370Z,102540.92
2019-02-04T11:00:33.928Z,102532.80
2019-02-04T11:03:02.825Z,102535.28
2019-02-04T11:05:33.980Z,102535.28
2019-02-04T11:08:02.564Z,102532.69
2019-02-04T11:10:33.497Z,102536.13
2019-02-04T11:13:02.885Z,102530.69
2019-02-04T11:15:31.409Z,102526.41
2019-02-04T11:18:00.365Z,102528.13
2019-02-04T11:20:30.492Z,102534.09
2019-02-04T11:22:59.646Z,102535.41
2019-02-04T11:25:28.129Z,102535.41
2019-02-04T11:27:56.832Z,102530.35
2019-02-04T11:30:30.552Z,102524.83
2019-02-04T11:32:59.220Z,102537.05
2019-02-04T11:35:27.804Z,102533.98
2019-02-04T11:37:56.562Z,102533.98
2019-02-04T11:40:28.494Z,102530.56
2019-02-04T11:42:57.031Z,102534.63
2019-02-04T11:45:26.079Z,102534.63
2019-02-04T11:47:54.603Z,102517.06
2019-02-04T11:50:23.063Z,102514.92
2019-02-04T11:52:51.550Z,102505.45
2019-02-04T11:55:20.081Z,102513.50
2019-02-04T11:57:48.573Z,102512.67
2019-02-04T12:00:25.584Z,102517.34
2019-02-04T12:02:55.067Z,102517.34
2019-02-04T12:05:24.491Z,102509.76
2019-02-04T12:07:53.521Z,102508.16
2019-02-04T12:10:30.612Z,102512.34
2019-02-04T12:12:59.451Z,102512.34
2019-02-04T12:15:27.899Z,102523.54
2019-02-04T12:17:56.351Z,102526.03
2019-02-04T12:20:24.832Z,102525.88
2019-02-04T12:22:53.280Z,102526.08
2019-02-04T12:25:23.879Z,102519.47
2019-02-04T12:27:53.101Z,102518.91
2019-02-04T12:30:31.022Z,102522.28
2019-02-04T12:33:00.402Z,102521.80
2019-02-04T12:35:29.000Z,102523.80
2019-02-04T12:37:57.658Z,102512.96
2019-02-04T12:40:26.599Z,102513.28
2019-02-04T12:42:55.049Z,102517.42
2019-02-04T12:45:28.934Z,102516.36
2019-02-04T12:48:00.708Z,102517.94
2019-02-04T12:50:28.073Z,102520.42
2019-02-04T12:52:56.539Z,102519.05
2019-02-04T12:55:27.296Z,102515.82
2019-02-04T12:57:55.758Z,102522.33
2019-02-04T13:00:29.937Z,102518.59
2019-02-04T13:02:58.569Z,102513.16
2019-02-04T13:05:30.327Z,102510.39
2019-02-04T13:07:58.854Z,102506.24
2019-02-04T13:10:27.318Z,102504.16
2019-02-04T13:12:56.352Z,102501.18
2019-02-04T13:15:25.541Z,102500.89
2019-02-04T13:17:54.107Z,102498.61
2019-02-04T13:20:23.399Z,102506.44
2019-02-04T13:22:51.920Z,102504.86
2019-02-04T13:25:23.128Z,102505.46
2019-02-04T13:27:51.651Z,102500.32
2019-02-04T13:30:23.006Z,102494.89
2019-02-04T13:32:51.505Z,102486.66
2019-02-04T13:35:19.964Z,102487.54
2019-02-04T13:37:48.493Z,102494.89
2019-02-04T13:40:30.518Z,102488.94
2019-02-04T13:42:59.037Z,102485.89
2019-02-04T13:45:28.020Z,102492.69
2019-02-04T13:47:56.578Z,102492.60
2019-02-04T13:50:25.232Z,102485.77
2019-02-04T13:52:54.226Z,102484.00
2019-02-04T13:55:31.670Z,102481.91
2019-02-04T13:58:00.505Z,102474.09
2019-02-04T14:00:29.027Z,102472.91
2019-02-04T14:02:59.839Z,102475.08
2019-02-04T14:05:31.406Z,102478.94
2019-02-04T14:08:00.614Z,102475.59
2019-02-04T14:10:34.888Z,102471.34
2019-02-04T14:13:03.512Z,102477.25
2019-02-04T14:15:35.422Z,102473.80
2019-02-04T14:18:02.594Z,102474.20
2019-02-04T14:20:31.120Z,102472.11
2019-02-04T14:22:59.602Z,102475.97
2019-02-04T14:25:28.163Z,102475.97
2019-02-04T14:27:56.613Z,102470.75
2019-02-04T14:30:37.234Z,102478.94
2019-02-04T14:33:06.174Z,102472.80
2019-02-04T14:35:34.861Z,102474.48
2019-02-04T14:38:03.858Z,102475.30
2019-02-04T14:40:32.403Z,102476.47
2019-02-04T14:43:10.275Z,102475.58
2019-02-04T14:46:04.556Z,102474.50
2019-02-04T14:49:00.330Z,102479.12
2019-02-04T14:51:32.147Z,102474.97
2019-02-04T14:54:03.818Z,102477.45
2019-02-04T14:56:59.800Z,102480.12
2019-02-04T14:59:29.806Z,102480.80
2019-02-04T15:02:13.303Z,102485.52
2019-02-04T15:04:50.481Z,102489.46
2019-02-04T15:07:39.663Z,102486.98
2019-02-04T15:10:35.146Z,102491.44
2019-02-04T15:13:15.718Z,102489.31
2019-02-04T15:15:56.496Z,102489.31
2019-02-04T15:18:57.310Z,102494.02
2019-02-04T15:21:31.685Z,102494.02
2019-02-04T15:24:08.907Z,102497.19
2019-02-04T15:26:36.718Z,102478.73
2019-02-04T15:29:14.176Z,102478.73
2019-02-04T15:32:00.816Z,102480.61
2019-02-04T15:35:05.633Z,102484.02
2019-02-04T15:37:53.772Z,102500.63
2019-02-04T15:40:25.396Z,102483.68
2019-02-04T15:43:32.242Z,102484.72
2019-02-04T15:46:12.608Z,102484.72
2019-02-04T15:48:47.095Z,102478.56
2019-02-04T15:51:18.722Z,102481.75
2019-02-04T15:53:48.290Z,102481.75
2019-02-04T15:56:16.871Z,102474.80
2019-02-04T15:58:45.328Z,102481.61
2019-02-04T16:01:14.749Z,102481.61
2019-02-04T16:03:43.230Z,102476.14
2019-02-04T16:06:11.682Z,102468.39
2019-02-04T16:08:40.130Z,102468.39
2019-02-04T16:11:08.787Z,102475.35
2019-02-04T16:13:37.235Z,102466.44
2019-02-04T16:16:05.682Z,102459.41
2019-02-04T16:18:34.171Z,102466.63
2019-02-04T16:21:02.624Z,102458.78
2019-02-04T16:23:31.073Z,102458.78
2019-02-04T16:25:59.857Z,102461.00
2019-02-04T16:28:28.300Z,102461.00
2019-02-04T16:30:56.784Z,102458.72
2019-02-04T16:33:25.267Z,102453.16
2019-02-04T16:35:53.722Z,102452.64
2019-02-04T16:38:22.188Z,102452.64
2019-02-04T16:40:50.719Z,102450.34
2019-02-04T16:43:19.306Z,102450.34
2019-02-04T16:45:47.723Z,102443.63
2019-02-04T16:48:16.213Z,102449.38
2019-02-04T16:50:44.674Z,102443.91
2019-02-04T16:53:13.106Z,102449.25
2019-02-04T16:55:42.759Z,102449.25
2019-02-04T16:58:11.489Z,102453.58
2019-02-04T17:00:39.941Z,102450.66
2019-02-04T17:03:08.459Z,102454.86
2019-02-04T17:05:36.982Z,102455.26
2019-02-04T17:08:05.602Z,102448.36
2019-02-04T17:10:34.116Z,102448.36
2019-02-04T17:13:02.936Z,102442.63
2019-02-04T17:15:31.468Z,102446.47
2019-02-04T17:17:59.957Z,102446.47
2019-02-04T17:20:30.982Z,102442.10
2019-02-04T17:22:59.439Z,102442.10
2019-02-04T17:25:27.908Z,102445.59
2019-02-04T17:27:56.425Z,102435.48
2019-02-04T17:30:25.945Z,102435.48
2019-02-04T17:32:54.430Z,102447.63
2019-02-04T17:35:22.951Z,102443.02
2019-02-04T17:37:51.395Z,102441.73
2019-02-04T17:40:24.678Z,102438.66
2019-02-04T17:42:54.669Z,102430.34
2019-02-04T17:45:23.198Z,102434.72
2019-02-04T17:47:53.899Z,102434.72
2019-02-04T17:50:22.984Z,102437.89
2019-02-04T17:52:51.769Z,102431.84
2019-02-04T17:55:22.786Z,102429.95
2019-02-04T17:57:52.794Z,102433.44
2019-02-04T18:00:40.935Z,102439.72
2019-02-04T18:03:10.078Z,102439.72
2019-02-04T18:05:38.585Z,102436.94
2019-02-04T18:08:07.400Z,102435.75
2019-02-04T18:10:35.926Z,102435.66
2019-02-04T18:13:04.473Z,102435.66
2019-02-04T18:15:32.974Z,102432.17
2019-02-04T18:18:01.437Z,102436.81
2019-02-04T18:20:29.902Z,102438.49
2019-02-04T18:22:58.529Z,102439.25
2019-02-04T18:25:27.396Z,102439.25
2019-02-04T18:27:55.864Z,102433.64
2019-02-04T18:30:25.788Z,102429.80
2019-02-04T18:32:54.252Z,102423.78
2019-02-04T18:35:23.447Z,102422.11
2019-02-04T18:37:52.107Z,102429.80
2019-02-04T18:40:24.831Z,102423.27
2019-02-04T18:42:53.662Z,102420.61
2019-02-04T18:45:24.967Z,102420.61
2019-02-04T18:47:53.551Z,102417.47
2019-02-04T18:50:23.453Z,102415.30
2019-02-04T18:52:52.240Z,102415.30
2019-02-04T18:55:26.449Z,102414.55
2019-02-04T18:57:54.993Z,102417.20
2019-02-04T19:00:26.709Z,102408.22
2019-02-04T19:02:55.319Z,102401.94
2019-02-04T19:05:26.673Z,102397.02
2019-02-04T19:07:54.229Z,102397.02
2019-02-04T19:10:23.730Z,102385.09
2019-02-04T19:12:52.195Z,102386.37
2019-02-04T19:15:23.784Z,102386.50
2019-02-04T19:17:54.075Z,102385.34
2019-02-04T19:20:23.692Z,102384.42
2019-02-04T19:22:52.185Z,102377.25
2019-02-04T19:25:21.984Z,102370.84
2019-02-04T19:27:51.466Z,102365.20
2019-02-04T19:30:31.790Z,102367.76
2019-02-04T19:33:00.247Z,102367.76
2019-02-04T19:35:28.707Z,102364.83
2019-02-04T19:37:57.273Z,102357.62
2019-02-04T19:40:25.728Z,102352.02
2019-02-04T19:42:54.362Z,102349.14
2019-02-04T19:45:24.675Z,102346.09
2019-02-04T19:47:53.551Z,102346.09
2019-02-04T19:50:24.757Z,102337.91
2019-02-04T19:52:53.345Z,102337.91
2019-02-04T19:55:22.145Z,102331.50
2019-02-04T19:57:50.608Z,102331.50
2019-02-04T20:00:21.247Z,102330.98
2019-02-04T20:02:51.171Z,102347.38
2019-02-04T20:05:25.849Z,102352.10
2019-02-04T20:07:54.546Z,102347.65
2019-02-04T20:10:25.414Z,102352.03
2019-02-04T20:12:53.921Z,102340.62
2019-02-04T20:15:25.276Z,102340.62
2019-02-04T20:17:53.801Z,102333.69
2019-02-04T20:20:22.557Z,102343.00
2019-02-04T20:22:51.117Z,102351.57
2019-02-04T20:25:24.800Z,102348.33
2019-02-04T20:27:53.399Z,102328.28
2019-02-04T20:30:31.857Z,102328.28
2019-02-04T20:33:00.362Z,102326.53
2019-02-04T20:35:28.862Z,102326.53
2019-02-04T20:37:57.340Z,102325.17
2019-02-04T20:40:27.330Z,102325.17
2019-02-04T20:42:55.791Z,102328.13
2019-02-04T20:45:25.574Z,102320.44
2019-02-04T20:47:54.074Z,102324.28
2019-02-04T20:50:37.334Z,102324.28
2019-02-04T20:53:05.897Z,102317.36
2019-02-04T20:55:34.360Z,102309.66
2019-02-04T20:58:02.813Z,102309.66
2019-02-04T21:00:32.012Z,102297.03
2019-02-04T21:03:02.049Z,102293.07
2019-02-04T21:05:30.958Z,102293.07
2019-02-04T21:07:59.440Z,102316.35
2019-02-04T21:10:31.269Z,102307.78
2019-02-04T21:12:59.805Z,102319.31
2019-02-04T21:15:28.390Z,102319.31
2019-02-04T21:17:56.911Z,102307.08
2019-02-04T21:20:27.213Z,102310.73
2019-02-04T21:22:55.771Z,102305.61
2019-02-04T21:25:24.467Z,102292.38
2019-02-04T21:27:53.266Z,102292.38
2019-02-04T21:30:48.690Z,102291.02
2019-02-04T21:33:17.162Z,102282.33
2019-02-04T21:35:45.612Z,102282.33
2019-02-04T21:38:14.376Z,102290.30
2019-02-04T21:40:42.842Z,102297.59
2019-02-04T21:43:11.294Z,102301.83
2019-02-04T21:45:39.853Z,102292.74
2019-02-04T21:48:08.323Z,102298.39
2019-02-04T21:50:36.836Z,102302.32
2019-02-04T21:53:05.792Z,102309.25
2019-02-04T21:55:34.265Z,102311.90
2019-02-04T21:58:02.794Z,102305.48
2019-02-04T22:00:34.292Z,102305.21
2019-02-04T22:03:02.817Z,102304.81
2019-02-04T22:05:33.425Z,102300.29
2019-02-04T22:08:02.681Z,102294.56
2019-02-04T22:10:31.602Z,102294.56
2019-02-04T22:13:00.546Z,102301.97
2019-02-04T22:15:29.102Z,102296.97
2019-02-04T22:17:57.621Z,102293.60
2019-02-04T22:20:26.101Z,102284.34
2019-02-04T22:22:54.657Z,102284.34
2019-02-04T22:25:24.876Z,102284.83
2019-02-04T22:27:53.457Z,102281.91
2019-02-04T22:30:23.933Z,102273.20
2019-02-04T22:32:52.470Z,102276.77
2019-02-04T22:35:20.928Z,102276.77
2019-02-04T22:37:49.429Z,102270.36
2019-02-04T22:40:23.073Z,102271.53
2019-02-04T22:42:51.677Z,102269.84
2019-02-04T22:45:20.347Z,102260.27
2019-02-04T22:47:48.810Z,102274.48
2019-02-04T22:50:20.439Z,102275.38
2019-02-04T22:52:48.923Z,102269.97
2019-02-04T22:55:18.015Z,102260.31
2019-02-04T22:57:46.466Z,102260.31
2019-02-04T23:00:43.936Z,102260.80
2019-02-04T23:03:13.626Z,102269.61
2019-02-04T23:05:42.077Z,102269.61
2019-02-04T23:08:10.654Z,102268.05
2019-02-04T23:10:39.314Z,102268.05
2019-02-04T23:13:07.842Z,102272.66
2019-02-04T23:15:36.393Z,102277.39
2019-02-04T23:18:05.685Z,102273.06
2019-02-04T23:20:34.136Z,102269.61
2019-02-04T23:23:02.628Z,102263.96
2019-02-04T23:25:42.693Z,102263.96
2019-02-04T23:28:01.262Z,102252.54
2019-02-04T23:30:29.766Z,102242.28
2019-02-04T23:32:58.227Z,102232.30
2019-02-04T23:35:26.680Z,102232.30
2019-02-04T23:37:55.175Z,102230.34
2019-02-04T23:40:23.633Z,102227.09
2019-02-04T23:42:52.107Z,102227.09
2019-02-04T23:45:20.589Z,102230.78
2019-02-04T23:47:49.126Z,102227.81
2019-02-04T23:50:17.948Z,102225.33
2019-02-04T23:52:46.449Z,102228.41
2019-02-04T23:55:15.413Z,102219.83
2019-02-04T23:57:43.854Z,102221.72
